createdAt,value
2018-08-06T00:00:46.727Z,21.20
2018-08-06T00:03:14.744Z,21.18
2018-08-06T00:05:42.765Z,21.15
2018-08-06T00:08:10.785Z,21.13
2018-08-06T00:10:38.811Z,21.13
2018-08-06T00:13:06.829Z,21.11
2018-08-06T00:15:34.853Z,21.10
2018-08-06T00:18:02.882Z,21.06
2018-08-06T00:20:30.900Z,21.06
2018-08-06T00:22:58.906Z,21.03
2018-08-06T00:25:27.348Z,20.98
2018-08-06T00:27:55.373Z,20.97
2018-08-06T00:30:23.406Z,20.95
2018-08-06T00:32:51.509Z,20.95
2018-08-06T00:35:19.668Z,20.95
2018-08-06T00:37:47.707Z,20.93
2018-08-06T00:40:17.056Z,20.93
2018-08-06T00:42:45.616Z,20.90
2018-08-06T00:45:15.439Z,20.83
2018-08-06T00:47:43.753Z,20.80
2018-08-06T00:50:12.104Z,20.79
2018-08-06T00:52:40.137Z,20.76
2018-08-06T00:55:09.977Z,20.69
2018-08-06T00:57:38.004Z,20.66
2018-08-06T01:00:07.981Z,20.65
2018-08-06T01:02:36.013Z,20.64
2018-08-06T01:05:05.661Z,20.59
2018-08-06T01:07:33.732Z,20.57
2018-08-06T01:10:01.751Z,20.50
2018-08-06T01:12:29.778Z,20.46
2018-08-06T01:14:57.796Z,20.44
2018-08-06T01:17:25.825Z,20.40
2018-08-06T01:19:53.852Z,20.36
2018-08-06T01:22:21.857Z,20.33
2018-08-06T01:24:49.897Z,20.28
2018-08-06T01:27:17.914Z,20.28
2018-08-06T01:29:45.925Z,20.25
2018-08-06T01:32:13.942Z,20.24
2018-08-06T01:34:41.941Z,20.20
2018-08-06T01:37:09.953Z,20.17
2018-08-06T01:39:37.968Z,20.13
2018-08-06T01:42:05.999Z,20.10
2018-08-06T01:44:34.013Z,20.06
2018-08-06T01:47:02.026Z,20.02
2018-08-06T01:49:30.056Z,20.01
2018-08-06T01:51:58.084Z,19.98
2018-08-06T01:54:26.092Z,19.94
2018-08-06T01:56:54.100Z,19.90
2018-08-06T01:59:22.112Z,19.87
2018-08-06T02:01:50.108Z,19.85
2018-08-06T02:04:19.141Z,19.83
2018-08-06T02:06:47.159Z,19.79
2018-08-06T02:09:21.651Z,19.75
2018-08-06T02:11:49.662Z,19.70
2018-08-06T02:14:17.688Z,19.68
2018-08-06T02:16:45.724Z,19.67
2018-08-06T02:19:13.734Z,19.65
2018-08-06T02:21:41.752Z,19.62
2018-08-06T02:24:09.810Z,19.59
2018-08-06T02:26:37.829Z,19.55
2018-08-06T02:29:05.849Z,19.54
2018-08-06T02:31:33.881Z,19.49
2018-08-06T02:34:01.897Z,19.47
2018-08-06T02:36:29.912Z,19.45
2018-08-06T02:38:57.905Z,19.43
2018-08-06T02:41:26.045Z,19.40
2018-08-06T02:43:54.060Z,19.39
2018-08-06T02:46:22.096Z,19.52
2018-08-06T02:48:50.112Z,19.50
2018-08-06T02:51:18.140Z,19.43
2018-08-06T02:53:46.149Z,19.39
2018-08-06T02:56:14.160Z,19.36
2018-08-06T02:58:42.183Z,19.32
2018-08-06T03:01:10.208Z,19.29
2018-08-06T03:03:38.227Z,19.23
2018-08-06T03:06:06.609Z,19.17
2018-08-06T03:08:34.770Z,19.15
2018-08-06T03:11:02.812Z,19.13
2018-08-06T03:13:30.838Z,19.09
2018-08-06T03:15:58.859Z,19.06
2018-08-06T03:18:26.885Z,19.02
2018-08-06T03:20:54.905Z,18.98
2018-08-06T03:23:22.932Z,18.94
2018-08-06T03:25:50.965Z,18.92
2018-08-06T03:28:18.999Z,18.89
2018-08-06T03:30:47.014Z,18.84
2018-08-06T03:33:15.038Z,18.84
2018-08-06T03:35:43.056Z,18.83
2018-08-06T03:38:11.070Z,18.80
2018-08-06T03:40:39.077Z,18.79
2018-08-06T03:43:07.083Z,18.77
2018-08-06T03:45:35.084Z,18.74
2018-08-06T03:48:03.103Z,18.72
2018-08-06T03:50:31.118Z,18.72
2018-08-06T03:52:59.137Z,18.68
2018-08-06T03:55:27.376Z,18.66
2018-08-06T03:57:55.405Z,18.64
2018-08-06T04:00:23.404Z,18.62
2018-08-06T04:02:51.445Z,18.61
2018-08-06T04:05:19.452Z,18.60
2018-08-06T04:07:47.468Z,18.58
2018-08-06T04:10:16.763Z,18.58
2018-08-06T04:12:44.805Z,18.57
2018-08-06T04:15:12.953Z,18.56
2018-08-06T04:17:41.810Z,18.54
2018-08-06T04:20:10.892Z,18.54
2018-08-06T04:22:39.266Z,18.51
2018-08-06T04:25:07.611Z,18.49
2018-08-06T04:27:35.869Z,18.40
2018-08-06T04:30:06.628Z,18.38
2018-08-06T04:32:34.656Z,18.35
2018-08-06T04:35:02.678Z,18.35
2018-08-06T04:37:30.688Z,18.32
2018-08-06T04:39:58.867Z,18.33
2018-08-06T04:42:26.883Z,18.33
2018-08-06T04:44:54.922Z,18.31
2018-08-06T04:47:22.979Z,18.28
2018-08-06T04:49:51.003Z,18.28
2018-08-06T04:52:19.012Z,18.29
2018-08-06T04:54:47.045Z,18.28
2018-08-06T04:57:15.049Z,18.27
2018-08-06T04:59:43.083Z,18.27
2018-08-06T05:02:11.093Z,18.28
2018-08-06T05:04:39.108Z,18.30
2018-08-06T05:07:07.221Z,18.28
2018-08-06T05:09:39.092Z,18.27
2018-08-06T05:12:07.355Z,18.29
2018-08-06T05:14:36.074Z,18.31
2018-08-06T05:17:05.349Z,18.35
2018-08-06T05:19:33.477Z,18.38
2018-08-06T05:22:01.445Z,18.40
2018-08-06T05:24:29.484Z,18.41
2018-08-06T05:26:57.505Z,18.42
2018-08-06T05:29:25.524Z,18.46
2018-08-06T05:31:53.554Z,18.49
2018-08-06T05:34:21.581Z,18.54
2018-08-06T05:36:49.609Z,18.60
2018-08-06T05:39:17.660Z,18.73
2018-08-06T05:41:45.708Z,18.81
2018-08-06T05:44:13.938Z,18.83
2018-08-06T05:46:41.966Z,18.84
2018-08-06T05:49:09.990Z,18.86
2018-08-06T05:51:37.997Z,18.88
2018-08-06T05:54:06.225Z,18.91
2018-08-06T05:56:34.253Z,18.96
2018-08-06T05:59:02.280Z,19.00
2018-08-06T06:01:30.318Z,19.07
2018-08-06T06:03:58.332Z,19.12
2018-08-06T06:06:26.341Z,19.18
2018-08-06T06:08:54.357Z,19.24
2018-08-06T06:11:22.397Z,19.34
2018-08-06T06:13:50.591Z,19.44
2018-08-06T06:16:18.620Z,19.56
2018-08-06T06:18:46.641Z,19.70
2018-08-06T06:21:14.674Z,19.87
2018-08-06T06:23:42.757Z,20.04
2018-08-06T06:26:10.809Z,20.24
2018-08-06T06:28:38.885Z,20.48
2018-08-06T06:31:06.881Z,20.69
2018-08-06T06:33:34.888Z,20.92
2018-08-06T06:36:02.920Z,21.14
2018-08-06T06:38:30.945Z,21.40
2018-08-06T06:40:58.958Z,21.70
2018-08-06T06:43:26.979Z,22.00
2018-08-06T06:45:54.997Z,22.27
2018-08-06T06:48:23.021Z,22.49
2018-08-06T06:50:51.050Z,22.75
2018-08-06T06:53:19.078Z,23.05
2018-08-06T06:55:47.096Z,23.30
2018-08-06T06:58:15.176Z,23.57
2018-08-06T07:00:43.308Z,23.88
2018-08-06T07:03:11.334Z,24.18
2018-08-06T07:05:39.360Z,24.53
2018-08-06T07:08:07.385Z,24.76
2018-08-06T07:10:35.422Z,24.99
2018-08-06T07:13:03.440Z,25.23
2018-08-06T07:15:31.812Z,25.48
2018-08-06T07:17:59.834Z,25.74
2018-08-06T07:20:27.854Z,26.00
2018-08-06T07:22:55.887Z,26.27
2018-08-06T07:25:23.931Z,26.51
2018-08-06T07:27:51.993Z,26.83
2018-08-06T07:30:20.211Z,27.09
2018-08-06T07:32:48.312Z,27.30
2018-08-06T07:35:16.344Z,27.44
2018-08-06T07:37:44.383Z,27.52
2018-08-06T07:40:13.840Z,27.70
2018-08-06T07:42:42.139Z,28.00
2018-08-06T07:45:16.822Z,28.23
2018-08-06T07:47:45.385Z,28.44
2018-08-06T07:50:15.288Z,28.58
2018-08-06T07:52:43.595Z,28.71
2018-08-06T07:55:11.640Z,28.85
2018-08-06T07:57:40.176Z,29.01
2018-08-06T08:00:10.373Z,29.20
2018-08-06T08:02:38.445Z,29.45
2018-08-06T08:05:08.985Z,29.65
2018-08-06T08:07:37.289Z,29.84
2018-08-06T08:10:08.296Z,30.06
2018-08-06T08:12:36.356Z,30.11
2018-08-06T08:15:07.633Z,30.16
2018-08-06T08:17:35.676Z,30.35
2018-08-06T08:20:04.858Z,30.55
2018-08-06T08:22:32.794Z,30.68
2018-08-06T08:25:00.817Z,30.92
2018-08-06T08:27:28.857Z,30.99
2018-08-06T08:29:56.877Z,30.91
2018-08-06T08:32:25.345Z,30.93
2018-08-06T08:34:53.369Z,31.20
2018-08-06T08:37:21.413Z,31.46
2018-08-06T08:39:49.453Z,31.61
2018-08-06T08:42:17.641Z,31.69
2018-08-06T08:44:45.684Z,31.62
2018-08-06T08:47:14.276Z,31.84
2018-08-06T08:49:42.301Z,32.00
2018-08-06T08:52:10.556Z,32.21
2018-08-06T08:54:38.611Z,32.28
2018-08-06T08:57:06.637Z,32.26
2018-08-06T08:59:34.691Z,32.41
2018-08-06T09:02:02.722Z,32.49
2018-08-06T09:04:31.168Z,32.64
2018-08-06T09:06:59.212Z,32.86
2018-08-06T09:09:27.386Z,33.12
2018-08-06T09:11:55.416Z,33.23
2018-08-06T09:14:23.461Z,33.25
2018-08-06T09:16:51.521Z,33.22
2018-08-06T09:19:19.570Z,33.25
2018-08-06T09:21:47.616Z,33.44
2018-08-06T09:24:16.065Z,33.34
2018-08-06T09:26:44.109Z,33.41
2018-08-06T09:29:12.132Z,33.43
2018-08-06T09:31:40.176Z,33.65
2018-08-06T09:34:08.592Z,33.75
2018-08-06T09:36:36.701Z,33.64
2018-08-06T09:39:09.067Z,33.39
2018-08-06T09:41:37.146Z,33.39
2018-08-06T09:44:05.304Z,33.51
2018-08-06T09:46:33.339Z,33.75
2018-08-06T09:49:01.697Z,33.90
2018-08-06T09:51:29.744Z,33.97
2018-08-06T09:53:57.843Z,34.12
2018-08-06T09:56:25.865Z,34.35
2018-08-06T09:58:53.894Z,34.53
2018-08-06T10:01:27.205Z,34.72
2018-08-06T10:03:55.239Z,34.68
2018-08-06T10:06:23.416Z,34.62
2018-08-06T10:08:51.321Z,34.52
2018-08-06T10:11:19.343Z,34.68
2018-08-06T10:13:47.389Z,34.81
2018-08-06T10:16:15.712Z,35.08
2018-08-06T10:18:43.787Z,35.11
2018-08-06T10:21:11.811Z,35.29
2018-08-06T10:23:39.860Z,35.40
2018-08-06T10:26:07.898Z,35.50
2018-08-06T10:28:35.953Z,35.55
2018-08-06T10:31:05.021Z,35.47
2018-08-06T10:33:33.053Z,35.31
2018-08-06T10:36:01.345Z,35.49
2018-08-06T10:38:29.384Z,35.61
2018-08-06T10:40:57.431Z,35.50
2018-08-06T10:43:25.488Z,35.60
2018-08-06T10:45:53.556Z,35.73
2018-08-06T10:48:21.629Z,35.70
2018-08-06T10:50:49.651Z,35.65
2018-08-06T10:53:17.686Z,35.71
2018-08-06T10:55:45.720Z,35.67
2018-08-06T10:58:13.761Z,35.76
2018-08-06T11:00:41.788Z,35.75
2018-08-06T11:03:09.894Z,35.95
2018-08-06T11:05:37.978Z,36.13
2018-08-06T11:08:06.000Z,36.28
2018-08-06T11:10:34.208Z,36.56
2018-08-06T11:13:02.293Z,36.53
2018-08-06T11:15:30.312Z,36.56
2018-08-06T11:17:58.381Z,36.54
2018-08-06T11:20:26.525Z,36.56
2018-08-06T11:22:54.540Z,36.57
2018-08-06T11:25:23.108Z,36.28
2018-08-06T11:27:51.146Z,36.35
2018-08-06T11:30:20.314Z,36.43
2018-08-06T11:32:48.866Z,36.54
2018-08-06T11:35:17.312Z,36.55
2018-08-06T11:37:45.381Z,36.38
2018-08-06T11:40:14.629Z,36.32
2018-08-06T11:42:43.600Z,36.32
2018-08-06T11:45:13.783Z,36.25
2018-08-06T11:47:42.029Z,36.20
2018-08-06T11:50:10.681Z,36.39
2018-08-06T11:52:38.708Z,36.53
2018-08-06T11:55:07.309Z,36.63
2018-08-06T11:57:35.341Z,36.77
2018-08-06T12:00:04.248Z,36.89
2018-08-06T12:02:32.312Z,36.87
2018-08-06T12:05:00.377Z,36.85
2018-08-06T12:07:28.419Z,36.39
2018-08-06T12:09:56.548Z,36.23
2018-08-06T12:12:24.580Z,36.35
2018-08-06T12:14:52.633Z,36.53
2018-08-06T12:17:20.673Z,36.69
2018-08-06T12:19:48.710Z,36.77
2018-08-06T12:22:16.740Z,36.58
2018-08-06T12:24:44.788Z,36.48
2018-08-06T12:27:12.846Z,36.56
2018-08-06T12:29:40.857Z,36.77
2018-08-06T12:32:08.892Z,36.74
2018-08-06T12:34:36.918Z,36.76
2018-08-06T12:37:05.451Z,36.76
2018-08-06T12:39:33.492Z,36.67
2018-08-06T12:42:01.537Z,36.76
2018-08-06T12:44:29.576Z,36.98
2018-08-06T12:46:57.900Z,37.14
2018-08-06T12:49:25.952Z,37.01
2018-08-06T12:51:53.985Z,37.03
2018-08-06T12:54:22.112Z,36.83
2018-08-06T12:56:50.145Z,36.73
2018-08-06T12:59:18.200Z,36.86
2018-08-06T13:01:46.236Z,37.03
2018-08-06T13:04:14.266Z,37.21
2018-08-06T13:06:42.325Z,36.86
2018-08-06T13:09:10.352Z,36.86
2018-08-06T13:11:38.578Z,37.07
2018-08-06T13:14:07.156Z,37.19
2018-08-06T13:16:35.719Z,37.25
2018-08-06T13:19:04.777Z,36.95
2018-08-06T13:21:32.817Z,36.94
2018-08-06T13:24:00.840Z,36.73
2018-08-06T13:26:28.938Z,36.69
2018-08-06T13:28:57.785Z,36.92
2018-08-06T13:31:25.844Z,37.21
2018-08-06T13:33:53.899Z,37.33
2018-08-06T13:36:22.103Z,37.53
2018-08-06T13:38:50.126Z,37.65
2018-08-06T13:41:18.166Z,37.73
2018-08-06T13:43:46.217Z,37.79
2018-08-06T13:46:14.261Z,37.74
2018-08-06T13:48:42.360Z,37.72
2018-08-06T13:51:10.406Z,37.75
2018-08-06T13:53:38.429Z,37.70
2018-08-06T13:56:06.765Z,37.67
2018-08-06T13:58:34.784Z,37.77
2018-08-06T14:01:02.813Z,37.80
2018-08-06T14:03:30.855Z,37.91
2018-08-06T14:05:58.856Z,38.01
2018-08-06T14:08:26.887Z,38.10
2018-08-06T14:10:54.911Z,37.98
2018-08-06T14:13:22.917Z,37.78
2018-08-06T14:15:50.953Z,37.54
2018-08-06T14:18:18.983Z,37.36
2018-08-06T14:20:47.053Z,37.33
2018-08-06T14:23:15.169Z,37.38
2018-08-06T14:25:43.196Z,37.28
2018-08-06T14:28:11.521Z,37.15
2018-08-06T14:30:39.547Z,37.10
2018-08-06T14:33:07.718Z,37.02
2018-08-06T14:35:35.793Z,37.00
2018-08-06T14:38:04.689Z,37.03
2018-08-06T14:40:32.718Z,36.99
2018-08-06T14:43:00.746Z,37.01
2018-08-06T14:45:28.789Z,36.86
2018-08-06T14:47:57.004Z,36.85
2018-08-06T14:50:25.021Z,37.02
2018-08-06T14:52:53.060Z,37.00
2018-08-06T14:55:21.105Z,36.94
2018-08-06T14:57:49.121Z,37.01
2018-08-06T15:00:20.756Z,36.95
2018-08-06T15:02:49.867Z,36.91
2018-08-06T15:05:17.868Z,36.96
2018-08-06T15:07:46.066Z,36.99
2018-08-06T15:10:14.726Z,36.96
2018-08-06T15:12:42.723Z,36.89
2018-08-06T15:15:13.104Z,36.82
2018-08-06T15:17:41.436Z,36.79
2018-08-06T15:20:11.545Z,36.61
2018-08-06T15:22:39.829Z,36.46
2018-08-06T15:25:10.769Z,36.34
2018-08-06T15:27:39.166Z,36.28
2018-08-06T15:30:07.621Z,36.22
2018-08-06T15:32:35.660Z,36.23
2018-08-06T15:35:04.525Z,36.27
2018-08-06T15:37:32.621Z,36.35
2018-08-06T15:40:00.565Z,36.36
2018-08-06T15:42:28.608Z,36.25
2018-08-06T15:44:56.625Z,36.20
2018-08-06T15:47:24.652Z,36.24
2018-08-06T15:49:59.297Z,36.34
2018-08-06T15:52:27.437Z,36.41
2018-08-06T15:54:55.950Z,36.45
2018-08-06T15:57:23.956Z,36.49
2018-08-06T15:59:51.971Z,36.30
2018-08-06T16:02:20.009Z,36.17
2018-08-06T16:04:48.032Z,36.11
2018-08-06T16:07:16.057Z,35.96
2018-08-06T16:09:44.089Z,36.00
2018-08-06T16:12:12.128Z,35.99
2018-08-06T16:14:40.144Z,35.95
2018-08-06T16:17:08.164Z,35.94
2018-08-06T16:19:36.166Z,35.80
2018-08-06T16:22:04.972Z,35.62
2018-08-06T16:24:33.000Z,35.50
2018-08-06T16:27:01.194Z,35.38
2018-08-06T16:29:29.220Z,35.28
2018-08-06T16:31:57.233Z,35.31
2018-08-06T16:34:25.248Z,35.30
2018-08-06T16:36:53.266Z,35.30
2018-08-06T16:39:21.289Z,35.22
2018-08-06T16:41:49.308Z,35.05
2018-08-06T16:44:17.582Z,35.07
2018-08-06T16:46:45.603Z,35.03
2018-08-06T16:49:13.613Z,34.92
2018-08-06T16:51:41.652Z,34.85
2018-08-06T16:54:09.671Z,34.79
2018-08-06T16:56:37.749Z,34.64
2018-08-06T16:59:06.286Z,34.54
2018-08-06T17:01:34.300Z,34.45
2018-08-06T17:04:02.335Z,34.46
2018-08-06T17:06:30.399Z,34.44
2018-08-06T17:08:58.448Z,34.43
2018-08-06T17:11:26.471Z,34.39
2018-08-06T17:13:54.512Z,34.33
2018-08-06T17:16:22.602Z,34.22
2018-08-06T17:18:50.645Z,34.14
2018-08-06T17:21:18.672Z,34.07
2018-08-06T17:23:46.995Z,34.02
2018-08-06T17:26:15.209Z,33.98
2018-08-06T17:28:43.276Z,33.79
2018-08-06T17:31:11.299Z,33.73
2018-08-06T17:33:39.461Z,33.72
2018-08-06T17:36:07.485Z,33.71
2018-08-06T17:38:35.557Z,33.67
2018-08-06T17:41:03.593Z,33.61
2018-08-06T17:43:31.613Z,33.53
2018-08-06T17:45:59.650Z,33.48
2018-08-06T17:48:27.870Z,33.46
2018-08-06T17:50:55.889Z,33.41
2018-08-06T17:53:23.993Z,33.38
2018-08-06T17:55:52.013Z,33.35
2018-08-06T17:58:20.034Z,33.28
2018-08-06T18:00:48.069Z,33.22
2018-08-06T18:03:16.101Z,33.09
2018-08-06T18:05:44.160Z,33.06
2018-08-06T18:08:12.166Z,32.99
2018-08-06T18:10:40.194Z,32.94
2018-08-06T18:13:08.229Z,32.88
2018-08-06T18:15:36.489Z,32.83
2018-08-06T18:18:05.805Z,32.79
2018-08-06T18:20:33.833Z,32.76
2018-08-06T18:23:01.850Z,32.71
2018-08-06T18:25:30.509Z,32.68
2018-08-06T18:27:58.533Z,32.62
2018-08-06T18:30:26.596Z,32.53
2018-08-06T18:32:54.960Z,32.48
2018-08-06T18:35:22.982Z,32.40
2018-08-06T18:37:51.007Z,32.34
2018-08-06T18:40:20.251Z,32.27
2018-08-06T18:42:48.280Z,32.18
2018-08-06T18:45:18.581Z,32.08
2018-08-06T18:47:47.768Z,31.97
2018-08-06T18:50:16.542Z,31.87
2018-08-06T18:52:45.567Z,31.75
2018-08-06T18:55:14.720Z,31.60
2018-08-06T18:57:43.132Z,31.45
2018-08-06T19:00:14.810Z,31.35
2018-08-06T19:02:42.848Z,31.24
2018-08-06T19:05:11.305Z,31.14
2018-08-06T19:07:39.604Z,31.04
2018-08-06T19:10:08.191Z,30.95
2018-08-06T19:12:41.649Z,30.84
2018-08-06T19:15:09.786Z,30.71
2018-08-06T19:17:43.184Z,30.60
2018-08-06T19:20:11.241Z,30.51
2018-08-06T19:22:39.389Z,30.40
2018-08-06T19:25:12.894Z,30.29
2018-08-06T19:27:41.097Z,30.16
2018-08-06T19:30:09.402Z,30.02
2018-08-06T19:32:37.424Z,29.87
2018-08-06T19:35:05.465Z,29.68
2018-08-06T19:37:38.873Z,29.53
2018-08-06T19:40:08.237Z,29.40
2018-08-06T19:42:41.610Z,29.29
2018-08-06T19:45:09.617Z,29.18
2018-08-06T19:47:37.644Z,29.08
2018-08-06T19:50:11.139Z,28.96
2018-08-06T19:52:39.405Z,28.80
2018-08-06T19:55:12.688Z,28.66
2018-08-06T19:57:41.274Z,28.48
2018-08-06T20:00:10.521Z,28.32
2018-08-06T20:02:38.559Z,28.20
2018-08-06T20:05:06.904Z,28.08
2018-08-06T20:07:34.968Z,27.97
2018-08-06T20:10:02.964Z,27.88
2018-08-06T20:12:31.589Z,27.83
2018-08-06T20:14:59.625Z,27.72
2018-08-06T20:17:27.716Z,27.59
2018-08-06T20:19:55.752Z,27.49
2018-08-06T20:22:23.801Z,27.41
2018-08-06T20:24:51.840Z,27.36
2018-08-06T20:27:19.889Z,27.29
2018-08-06T20:29:47.916Z,27.18
2018-08-06T20:32:16.138Z,27.04
2018-08-06T20:34:44.168Z,26.85
2018-08-06T20:37:12.199Z,26.72
2018-08-06T20:39:40.233Z,26.68
2018-08-06T20:42:08.405Z,26.64
2018-08-06T20:44:36.460Z,26.57
2018-08-06T20:47:04.901Z,26.48
2018-08-06T20:49:32.915Z,26.45
2018-08-06T20:52:00.940Z,26.40
2018-08-06T20:54:28.958Z,26.39
2018-08-06T20:56:57.046Z,26.34
2018-08-06T20:59:25.047Z,26.30
2018-08-06T21:01:53.068Z,26.23
2018-08-06T21:04:21.073Z,26.17
2018-08-06T21:06:49.709Z,26.13
2018-08-06T21:09:17.730Z,26.08
2018-08-06T21:11:45.760Z,26.02
2018-08-06T21:14:13.796Z,25.96
2018-08-06T21:16:41.816Z,25.88
2018-08-06T21:19:09.841Z,25.82
2018-08-06T21:21:37.856Z,25.75
2018-08-06T21:24:05.903Z,25.69
2018-08-06T21:26:33.940Z,25.61
2018-08-06T21:29:01.980Z,25.55
2018-08-06T21:31:30.008Z,25.46
2018-08-06T21:33:58.045Z,25.41
2018-08-06T21:36:26.063Z,25.33
2018-08-06T21:38:54.109Z,25.31
2018-08-06T21:41:22.125Z,25.27
2018-08-06T21:43:50.324Z,25.21
2018-08-06T21:46:18.596Z,25.14
2018-08-06T21:48:46.726Z,25.12
2018-08-06T21:51:14.752Z,25.09
2018-08-06T21:53:42.780Z,25.05
2018-08-06T21:56:10.819Z,25.02
2018-08-06T21:58:38.832Z,24.99
2018-08-06T22:01:07.009Z,24.96
2018-08-06T22:03:35.029Z,24.94
2018-08-06T22:06:03.068Z,24.91
2018-08-06T22:08:31.089Z,24.86
2018-08-06T22:10:59.305Z,24.79
2018-08-06T22:13:27.319Z,24.72
2018-08-06T22:15:55.494Z,24.69
2018-08-06T22:18:23.533Z,24.64
2018-08-06T22:20:51.557Z,24.64
2018-08-06T22:23:19.577Z,24.63
2018-08-06T22:25:47.618Z,24.61
2018-08-06T22:28:15.632Z,24.59
2018-08-06T22:30:43.672Z,24.56
2018-08-06T22:33:11.697Z,24.51
2018-08-06T22:35:40.020Z,24.48
2018-08-06T22:38:08.044Z,24.46
2018-08-06T22:40:36.068Z,24.43
2018-08-06T22:43:04.980Z,24.39
2018-08-06T22:45:33.023Z,24.35
2018-08-06T22:48:01.061Z,24.33
2018-08-06T22:50:29.067Z,24.30
2018-08-06T22:52:57.224Z,24.28
2018-08-06T22:55:25.236Z,24.25
2018-08-06T22:57:53.256Z,24.20
2018-08-06T23:00:21.315Z,24.14
2018-08-06T23:02:49.326Z,24.09
2018-08-06T23:05:17.534Z,24.03
2018-08-06T23:07:45.597Z,23.99
2018-08-06T23:10:15.148Z,23.96
2018-08-06T23:12:44.207Z,23.90
2018-08-06T23:15:13.906Z,23.87
2018-08-06T23:17:42.129Z,23.84
2018-08-06T23:20:10.604Z,23.83
2018-08-06T23:22:39.077Z,23.79
2018-08-06T23:25:07.577Z,23.75
2018-08-06T23:27:36.361Z,23.72
2018-08-06T23:30:07.429Z,23.68
2018-08-06T23:32:35.451Z,23.64
2018-08-06T23:35:04.341Z,23.59
2018-08-06T23:37:32.371Z,23.54
2018-08-06T23:40:00.389Z,23.49
2018-08-06T23:42:28.576Z,23.46
2018-08-06T23:44:56.596Z,23.44
2018-08-06T23:47:25.021Z,23.42
2018-08-06T23:49:53.032Z,23.38
2018-08-06T23:52:21.054Z,23.35
2018-08-06T23:54:49.635Z,23.29
2018-08-06T23:57:17.655Z,23.21
2018-08-06T23:59:45.665Z,23.16
